Time;durP1;ratioP1;P1;durP2;ratioP2;P2;SDS_P1;SDS_P2;PMS_P1;PMS_P2;Temp;Humidity;BMP_temperature;BMP_pressure;BME280_temperature;BME280_humidity;BME280_pressure;Samples;Min_cycle;Max_cycle;Signal;HPM_P1;HPM_P2
2024/03/11 00:01:34;;;;;;;;;;;;;;;6.64;100.00;99306.03;6195382;23;20216;-78
2024/03/11 00:04:03;;;;;;;;;;;;;;;6.65;100.00;99321.03;6191158;23;19923;-79
2024/03/11 00:06:39;;;;;;;;;;;;;;;6.63;100.00;99317.75;6190279;23;19916;-78
2024/03/11 00:09:15;;;;;;;;;;;;;;;6.60;100.00;99313.66;6187199;23;19913;-78
2024/03/11 00:12:00;;;;;;;;;;;;;;;6.58;100.00;99320.22;6160785;23;19920;-78
2024/03/11 00:14:33;;;;;;;;;;;;;;;6.62;100.00;99326.78;6185281;23;19912;-78
2024/03/11 00:16:58;;;;;;;;;;;;;;;6.61;100.00;99328.66;6186498;23;19912;-78
2024/03/11 00:19:29;;;;;;;;;;;;;;;6.63;100.00;99323.09;6185700;23;19970;-78
2024/03/11 00:21:58;;;;;;;;;;;;;;;6.64;100.00;99324.72;6186257;23;20063;-78
2024/03/11 00:24:33;;;;;;;;;;;;;;;6.63;100.00;99325.75;6187767;23;19940;-78
2024/03/11 00:29:43;;;;;;;;;;;;;;;6.64;100.00;99340.78;6191142;23;19922;-78
2024/03/11 00:35:29;;;;;;;;;;;;;;;6.61;100.00;99342.03;6191141;23;20011;-78
2024/03/11 00:37:57;;;;;;;;;;;;;;;6.61;100.00;99350.06;6188869;23;19979;-77
2024/03/11 00:40:31;;;;;;;;;;;;;;;6.59;100.00;99328.03;6188401;23;19917;-78
2024/03/11 00:43:05;;;;;;;;;;;;;;;6.61;100.00;99335.84;6189515;23;19913;-78
2024/03/11 00:45:31;;;;;;;;;;;;;;;6.59;100.00;99337.91;6189853;23;19939;-77
2024/03/11 00:51:39;;;;;;;;;;;;;;;6.62;100.00;99326.78;6101633;23;19913;-78
2024/03/11 00:54:27;;;;;;;;;;;;;;;6.57;100.00;99323.91;6098388;23;19913;-78
2024/03/11 00:56:52;;;;;;;;;;;;;;;6.56;100.00;99327.63;6101354;23;20563;-77
2024/03/11 00:59:18;;;;;;;;;;;;;;;6.53;100.00;99337.69;6102058;23;19913;-77
2024/03/11 01:01:52;;;;;;;;;;;;;;;6.57;100.00;99339.97;6168447;23;19967;-79
2024/03/11 01:04:35;;;;;;;;;;;;;;;6.57;100.00;99329.25;6188338;23;19920;-77
2024/03/11 01:07:25;;;;;;;;;;;;;;;6.52;100.00;99343.25;6187990;23;19912;-78
2024/03/11 01:09:53;;;;;;;;;;;;;;;6.50;100.00;99338.13;6188033;23;19913;-77
2024/03/11 01:15:37;;;;;;;;;;;;;;;6.49;100.00;99333.81;6101673;23;19944;-78
2024/03/11 01:18:16;;;;;;;;;;;;;;;6.46;100.00;99336.91;6186202;23;19912;-74
2024/03/11 01:20:49;;;;;;;;;;;;;;;6.45;100.00;99343.28;6183872;23;19955;-76
2024/03/11 01:23:29;;;;;;;;;;;;;;;6.45;100.00;99342.44;6184092;23;20242;-77
2024/03/11 01:25:54;;;;;;;;;;;;;;;6.44;100.00;99348.84;6183396;23;19920;-76
2024/03/11 01:28:20;;;;;;;;;;;;;;;6.40;100.00;99340.38;6183186;23;19995;-76
2024/03/11 01:30:56;;;;;;;;;;;;;;;6.39;100.00;99348.63;6184286;23;19921;-76
2024/03/11 01:33:22;;;;;;;;;;;;;;;6.36;100.00;99349.84;6183532;23;20392;-75
2024/03/11 01:35:56;;;;;;;;;;;;;;;6.34;100.00;99354.59;6182657;23;19999;-77
2024/03/11 01:38:22;;;;;;;;;;;;;;;6.33;100.00;99352.94;6184723;23;20353;-76
2024/03/11 01:41:01;;;;;;;;;;;;;;;6.30;100.00;99350.69;6182962;23;19913;-77
2024/03/11 01:43:30;;;;;;;;;;;;;;;6.33;100.00;99350.28;6182135;23;19928;-77
2024/03/11 01:45:55;;;;;;;;;;;;;;;6.31;100.00;99349.66;6184315;23;20333;-77
2024/03/11 01:48:21;;;;;;;;;;;;;;;6.29;100.00;99352.53;6151220;23;19926;-76
2024/03/11 01:50:47;;;;;;;;;;;;;;;6.31;100.00;99347.78;6152578;23;20345;-76
2024/03/11 01:53:14;;;;;;;;;;;;;;;6.30;100.00;99350.69;6153519;23;19913;-76
2024/03/11 01:55:39;;;;;;;;;;;;;;;6.30;100.00;99356.03;6151975;23;19912;-77
2024/03/11 01:58:04;;;;;;;;;;;;;;;6.26;100.00;99355.63;6152542;23;19943;-75
2024/03/11 02:00:30;;;;;;;;;;;;;;;6.28;100.00;99358.88;6153267;23;19966;-76
2024/03/11 02:02:55;;;;;;;;;;;;;;;6.25;100.00;99356.66;6153691;23;20199;-76
2024/03/11 02:05:20;;;;;;;;;;;;;;;6.23;100.00;99342.66;6152605;23;19950;-76
2024/03/11 02:07:50;;;;;;;;;;;;;;;6.26;100.00;99347.63;6155192;23;20306;-76
2024/03/11 02:10:15;;;;;;;;;;;;;;;6.23;100.00;99353.34;6153875;23;19975;-75
2024/03/11 02:12:40;;;;;;;;;;;;;;;6.19;100.00;99350.25;6153171;23;19916;-75
2024/03/11 02:15:10;;;;;;;;;;;;;;;6.19;100.00;99350.25;6154822;23;19968;-76
2024/03/11 02:17:36;;;;;;;;;;;;;;;6.19;100.00;99355.59;6153653;23;20393;-76
2024/03/11 02:20:01;;;;;;;;;;;;;;;6.16;100.00;99357.88;6152838;23;19957;-77
2024/03/11 02:22:28;;;;;;;;;;;;;;;6.13;100.00;99353.78;6153419;23;19916;-76
2024/03/11 02:24:53;;;;;;;;;;;;;;;6.09;100.00;99349.84;6153082;23;19924;-76
2024/03/11 02:27:22;;;;;;;;;;;;;;;6.04;100.00;99346.97;6153648;23;19913;-77
2024/03/11 02:29:47;;;;;;;;;;;;;;;6.04;100.00;99346.97;6154839;23;19919;-77
2024/03/11 02:32:12;;;;;;;;;;;;;;;6.04;100.00;99338.94;6152525;23;20334;-77
2024/03/11 02:34:38;;;;;;;;;;;;;;;6.01;100.00;99347.38;6152715;23;19967;-77
2024/03/11 02:37:06;;;;;;;;;;;;;;;6.01;100.00;99345.53;6154592;23;19912;-77
2024/03/11 02:39:33;;;;;;;;;;;;;;;6.03;100.00;99342.66;6152666;23;20325;-77
2024/03/11 02:41:58;;;;;;;;;;;;;;;5.98;100.00;99340.56;6153066;23;19912;-77
2024/03/11 02:44:24;;;;;;;;;;;;;;;5.97;100.00;99338.09;6154187;23;19912;-77
2024/03/11 02:46:49;;;;;;;;;;;;;;;5.99;100.00;99341.41;6158036;23;19924;-77
2024/03/11 02:49:15;;;;;;;;;;;;;;;5.91;100.00;99332.56;6183178;23;19917;-77
2024/03/11 02:51:42;;;;;;;;;;;;;;;5.90;100.00;99327.44;6182302;23;19967;-76
2024/03/11 02:54:08;;;;;;;;;;;;;;;5.87;100.00;99320.63;6182919;23;19916;-76
2024/03/11 02:56:37;;;;;;;;;;;;;;;5.85;100.00;99319.19;6182665;23;19919;-75
2024/03/11 02:59:05;;;;;;;;;;;;;;;5.81;100.00;99326.78;6183959;23;19912;-76
2024/03/11 03:01:30;;;;;;;;;;;;;;;5.80;100.00;99319.81;6184763;23;19916;-75
2024/03/11 03:03:58;;;;;;;;;;;;;;;5.76;100.00;99316.69;6184783;23;19912;-76
2024/03/11 03:06:23;;;;;;;;;;;;;;;5.73;100.00;99326.97;6186554;23;20276;-76
2024/03/11 03:08:48;;;;;;;;;;;;;;;5.72;100.00;99322.66;6185580;23;20471;-76
2024/03/11 03:11:14;;;;;;;;;;;;;;;5.71;100.00;99321.84;6138438;23;19955;-73
2024/03/11 03:13:39;;;;;;;;;;;;;;;5.69;100.00;99329.25;6155186;23;19919;-74
2024/03/11 03:16:05;;;;;;;;;;;;;;;5.68;100.00;99327.59;6156080;23;19936;-74
2024/03/11 03:18:30;;;;;;;;;;;;;;;5.67;100.00;99325.94;6152399;23;19917;-74
2024/03/11 03:20:55;;;;;;;;;;;;;;;5.66;100.00;99328.81;6155877;23;20236;-74
2024/03/11 03:23:21;;;;;;;;;;;;;;;5.64;100.00;99317.53;6156142;23;20283;-74
2024/03/11 03:25:46;;;;;;;;;;;;;;;5.65;100.00;99328.00;6154119;23;19925;-74
2024/03/11 03:28:12;;;;;;;;;;;;;;;5.65;100.00;99337.88;6155317;23;19951;-74
2024/03/11 03:30:40;;;;;;;;;;;;;;;5.63;100.00;99345.25;6156333;23;19932;-74
2024/03/11 03:33:05;;;;;;;;;;;;;;;5.61;100.00;99332.09;6156883;23;19912;-74
2024/03/11 03:35:31;;;;;;;;;;;;;;;5.58;100.00;99333.31;6164377;23;19966;-74
2024/03/11 03:37:56;;;;;;;;;;;;;;;5.58;100.00;99335.16;6156557;23;20315;-74
2024/03/11 03:40:22;;;;;;;;;;;;;;;5.57;100.00;99337.00;6155334;23;19913;-74
2024/03/11 03:42:48;;;;;;;;;;;;;;;5.54;100.00;99336.59;6155455;23;19917;-74
2024/03/11 03:45:13;;;;;;;;;;;;;;;5.52;100.00;99344.78;6155724;23;19923;-74
2024/03/11 03:47:39;;;;;;;;;;;;;;;5.52;100.00;99344.78;6155572;23;19959;-74
2024/03/11 03:50:04;;;;;;;;;;;;;;;5.52;100.00;99336.78;6156257;23;20284;-75
2024/03/11 03:52:29;;;;;;;;;;;;;;;5.48;100.00;99335.53;6156458;23;20236;-74
2024/03/11 03:54:54;;;;;;;;;;;;;;;5.44;100.00;99332.44;6179623;23;19979;-74
2024/03/11 03:57:21;;;;;;;;;;;;;;;5.42;100.00;99337.16;6179951;23;19921;-74
2024/03/11 03:59:46;;;;;;;;;;;;;;;5.42;100.00;99337.16;6155629;23;19916;-74
2024/03/11 04:02:17;;;;;;;;;;;;;;;5.40;100.00;99341.06;6181516;23;19920;-73
2024/03/11 04:04:43;;;;;;;;;;;;;;;5.38;100.00;99340.44;6163225;23;19924;-74
2024/03/11 04:07:08;;;;;;;;;;;;;;;5.37;100.00;99338.78;6159967;23;19916;-74
2024/03/11 04:09:33;;;;;;;;;;;;;;;5.36;100.00;99334.47;6157250;23;20317;-74
2024/03/11 04:11:59;;;;;;;;;;;;;;;5.34;100.00;99334.69;6156094;23;19948;-74
2024/03/11 04:14:24;;;;;;;;;;;;;;;5.33;100.00;99346.38;6157312;23;19944;-74
2024/03/11 04:16:50;;;;;;;;;;;;;;;5.34;100.00;99341.84;6155205;23;19935;-74
2024/03/11 04:19:15;;;;;;;;;;;;;;;5.33;100.00;99346.38;6155953;23;19970;-74
2024/03/11 04:21:40;;;;;;;;;;;;;;;5.36;100.00;99345.16;6154814;23;19916;-74
2024/03/11 04:24:05;;;;;;;;;;;;;;;5.34;100.00;99347.19;6155062;23;19912;-74
2024/03/11 04:26:31;;;;;;;;;;;;;;;5.32;100.00;99347.41;6154591;23;19919;-73
2024/03/11 04:28:57;;;;;;;;;;;;;;;5.27;100.00;99357.84;6154690;23;19916;-74
2024/03/11 04:31:24;;;;;;;;;;;;;;;5.26;100.00;99361.53;6155284;23;19932;-73
2024/03/11 04:33:50;;;;;;;;;;;;;;;5.26;100.00;99361.53;6154902;23;19939;-73
2024/03/11 04:36:15;;;;;;;;;;;;;;;5.27;100.00;99363.19;6154759;23;20210;-74
2024/03/11 04:38:41;;;;;;;;;;;;;;;5.27;100.00;99364.03;6129109;23;20355;-74
2024/03/11 04:41:07;;;;;;;;;;;;;;;5.25;100.00;99366.06;6154785;23;19917;-74
2024/03/11 04:43:33;;;;;;;;;;;;;;;5.26;100.00;99366.88;6154999;23;19912;-74
2024/03/11 04:45:58;;;;;;;;;;;;;;;5.23;100.00;99367.25;6155547;23;19920;-74
2024/03/11 04:48:23;;;;;;;;;;;;;;;5.22;100.00;99370.94;6153788;23;20273;-74
2024/03/11 04:50:48;;;;;;;;;;;;;;;5.23;100.00;99380.59;6155496;23;20261;-74
2024/03/11 04:53:16;;;;;;;;;;;;;;;5.22;100.00;99373.63;6155768;23;19995;-74
2024/03/11 04:55:42;;;;;;;;;;;;;;;5.22;100.00;99369.13;6155709;23;19912;-75
2024/03/11 04:58:07;;;;;;;;;;;;;;;5.25;100.00;99376.72;6155240;23;19917;-73
2024/03/11 05:00:32;;;;;;;;;;;;;;;5.23;100.00;99368.09;6154509;23;19919;-73
2024/03/11 05:02:58;;;;;;;;;;;;;;;5.14;100.00;99378.13;6154349;23;19920;-74
2024/03/11 05:05:24;;;;;;;;;;;;;;;5.15;100.00;99378.94;6155481;23;19913;-73
2024/03/11 05:07:51;;;;;;;;;;;;;;;5.16;100.00;99377.91;6156326;23;19948;-74
2024/03/11 05:10:17;;;;;;;;;;;;;;;5.14;100.00;99372.78;6153348;23;19923;-71
2024/03/11 05:12:43;;;;;;;;;;;;;;;5.14;100.00;99369.28;6154664;23;19912;-73
2024/03/11 05:15:11;;;;;;;;;;;;;;;5.13;100.00;99371.13;6155398;23;19913;-74
2024/03/11 05:17:37;;;;;;;;;;;;;;;5.12;100.00;99377.50;6153456;23;20225;-74
2024/03/11 05:20:06;;;;;;;;;;;;;;;5.14;100.00;99371.94;6154558;23;19919;-74
2024/03/11 05:22:37;;;;;;;;;;;;;;;5.16;100.00;99372.56;6155115;23;19928;-72
2024/03/11 05:25:05;;;;;;;;;;;;;;;5.14;100.00;99378.13;6153206;23;19924;-72
2024/03/11 05:27:31;;;;;;;;;;;;;;;5.13;100.00;99373.81;6154254;23;20367;-72
2024/03/11 05:29:57;;;;;;;;;;;;;;;5.12;100.00;99372.16;6154962;23;19916;-72
2024/03/11 05:32:23;;;;;;;;;;;;;;;5.12;100.00;99364.16;6152618;23;19917;-73
2024/03/11 05:34:50;;;;;;;;;;;;;;;5.14;100.00;99364.78;6154672;23;19924;-74
2024/03/11 05:37:18;;;;;;;;;;;;;;;5.16;100.00;99364.56;6155279;23;19921;-75
2024/03/11 05:39:43;;;;;;;;;;;;;;;5.22;100.00;99353.13;6153548;23;19991;-73
2024/03/11 05:42:08;;;;;;;;;;;;;;;5.27;100.00;99358.69;6154454;23;19991;-73
2024/03/11 05:44:34;;;;;;;;;;;;;;;5.19;100.00;99355.38;6127797;23;19964;-73
2024/03/11 05:46:59;;;;;;;;;;;;;;;5.15;100.00;99366.44;6153856;23;19916;-73
2024/03/11 05:49:28;;;;;;;;;;;;;;;5.15;100.00;99378.94;6153866;23;19917;-73
2024/03/11 05:51:53;;;;;;;;;;;;;;;5.15;100.00;99386.94;6153847;23;19923;-73
2024/03/11 05:54:19;;;;;;;;;;;;;;;5.19;100.00;99385.53;6154280;23;19991;-73
2024/03/11 05:56:53;;;;;;;;;;;;;;;5.17;100.00;99379.56;6154014;23;19913;-73
2024/03/11 05:59:21;;;;;;;;;;;;;;;5.13;100.00;99378.31;6154300;23;19920;-73
2024/03/11 06:01:46;;;;;;;;;;;;;;;5.12;100.00;99385.50;6153711;23;20209;-73
2024/03/11 06:04:11;;;;;;;;;;;;;;;5.09;100.00;99382.41;6153691;23;19913;-73
2024/03/11 06:06:36;;;;;;;;;;;;;;;5.07;100.00;99385.25;6154041;23;19984;-75
2024/03/11 06:09:02;;;;;;;;;;;;;;;5.09;100.00;99390.41;6154109;23;20237;-72
2024/03/11 06:11:27;;;;;;;;;;;;;;;5.08;100.00;99391.44;6145674;23;19916;-73
2024/03/11 06:13:52;;;;;;;;;;;;;;;5.08;100.00;99396.75;6184054;23;20316;-74
2024/03/11 06:16:18;;;;;;;;;;;;;;;5.07;100.00;99393.25;6183802;23;20339;-74
2024/03/11 06:18:43;;;;;;;;;;;;;;;5.08;100.00;99399.44;6184082;23;20376;-74
2024/03/11 06:21:10;;;;;;;;;;;;;;;5.05;100.00;99389.97;6183474;23;20321;-73
2024/03/11 06:23:35;;;;;;;;;;;;;;;5.05;100.00;99394.47;6183841;23;19916;-72
2024/03/11 06:26:00;;;;;;;;;;;;;;;5.06;100.00;99393.47;6183405;23;20481;-73
2024/03/11 06:28:26;;;;;;;;;;;;;;;5.08;100.00;99400.22;6184095;23;19935;-73
2024/03/11 06:30:52;;;;;;;;;;;;;;;5.09;100.00;99406.41;6183516;23;19912;-73
2024/03/11 06:33:18;;;;;;;;;;;;;;;5.09;100.00;99409.09;6183234;23;19923;-73
2024/03/11 06:35:43;;;;;;;;;;;;;;;5.12;100.00;99414.00;6183340;23;19948;-73
2024/03/11 06:38:08;;;;;;;;;;;;;;;5.12;100.00;99416.66;6183262;23;19995;-73
2024/03/11 06:40:34;;;;;;;;;;;;;;;5.13;100.00;99421.81;6183206;23;19958;-73
2024/03/11 06:43:02;;;;;;;;;;;;;;;5.13;100.00;99424.47;6183754;23;19912;-74
2024/03/11 06:45:27;;;;;;;;;;;;;;;5.15;100.00;99429.63;6183953;23;19923;-74
2024/03/11 06:47:52;;;;;;;;;;;;;;;5.15;100.00;99426.94;6183002;23;19912;-74
2024/03/11 06:50:18;;;;;;;;;;;;;;;5.17;100.00;99432.91;6184411;23;19923;-74
2024/03/11 06:52:44;;;;;;;;;;;;;;;5.17;100.00;99427.56;6183985;23;19912;-74
2024/03/11 06:55:12;;;;;;;;;;;;;;;5.20;100.00;99437.84;6182602;23;20172;-73
2024/03/11 06:57:38;;;;;;;;;;;;;;;5.20;100.00;99432.53;6183932;23;19919;-73
2024/03/11 07:00:04;;;;;;;;;;;;;;;5.23;100.00;99434.81;6184369;23;19916;-73
2024/03/11 07:02:32;;;;;;;;;;;;;;;5.26;100.00;99434.41;6182476;23;19944;-73
2024/03/11 07:04:57;;;;;;;;;;;;;;;5.28;100.00;99439.53;6183690;23;19920;-73
2024/03/11 07:07:24;;;;;;;;;;;;;;;5.32;100.00;99430.94;6183845;23;19916;-73
2024/03/11 07:09:51;;;;;;;;;;;;;;;5.30;100.00;99440.16;6182235;23;20379;-73
2024/03/11 07:12:20;;;;;;;;;;;;;;;5.31;100.00;99434.63;6182373;23;19923;-74
2024/03/11 07:14:45;;;;;;;;;;;;;;;5.34;100.00;99435.25;6183712;23;19916;-73
2024/03/11 07:17:12;;;;;;;;;;;;;;;5.32;100.00;99441.63;6181851;23;19913;-74
2024/03/11 07:19:38;;;;;;;;;;;;;;;5.31;100.00;99445.28;6157403;23;19923;-74
2024/03/11 07:22:04;;;;;;;;;;;;;;;5.36;100.00;99449.22;6183689;23;19947;-74
2024/03/11 07:24:29;;;;;;;;;;;;;;;5.36;100.00;99443.88;6182263;23;19919;-74
2024/03/11 07:26:55;;;;;;;;;;;;;;;5.40;100.00;99447.81;6183970;23;19917;-74
2024/03/11 07:29:22;;;;;;;;;;;;;;;5.40;100.00;99442.47;6183538;23;20346;-74
2024/03/11 07:31:53;;;;;;;;;;;;;;;5.40;100.00;99451.28;6182334;23;19920;-74
2024/03/11 07:34:19;;;;;;;;;;;;;;;5.44;100.00;99446.41;6183913;23;19991;-74
2024/03/11 07:36:44;;;;;;;;;;;;;;;5.45;100.00;99448.06;6183866;23;19948;-75
2024/03/11 07:39:10;;;;;;;;;;;;;;;5.42;100.00;99451.13;6182784;23;19920;-75
2024/03/11 07:41:36;;;;;;;;;;;;;;;5.42;100.00;99456.44;6183979;23;19974;-74
2024/03/11 07:44:02;;;;;;;;;;;;;;;5.43;100.00;99463.44;6183327;23;20046;-74
2024/03/11 07:46:28;;;;;;;;;;;;;;;5.42;100.00;99459.94;6183150;23;19975;-73
2024/03/11 07:48:54;;;;;;;;;;;;;;;5.41;100.00;99462.81;6185199;23;19916;-74
2024/03/11 07:51:19;;;;;;;;;;;;;;;5.40;100.00;99477.19;6194172;23;19904;-73
2024/03/11 07:53:45;;;;;;;;;;;;;;;5.45;100.00;99474.75;6202921;23;19952;-74
2024/03/11 07:56:11;;;;;;;;;;;;;;;5.45;100.00;99464.06;6186755;23;19978;-74
2024/03/11 07:58:37;;;;;;;;;;;;;;;5.50;100.00;99458.94;6185295;23;19922;-74
2024/03/11 08:01:02;;;;;;;;;;;;;;;5.56;100.00;99468.03;6184762;23;19944;-74
2024/03/11 08:03:27;;;;;;;;;;;;;;;5.58;100.00;99471.28;6184658;23;19919;-75
2024/03/11 08:05:52;;;;;;;;;;;;;;;5.64;100.00;99475.03;6183994;23;19919;-74
2024/03/11 08:08:18;;;;;;;;;;;;;;;5.67;100.00;99477.28;6185099;23;19912;-75
2024/03/11 08:10:43;;;;;;;;;;;;;;;5.72;100.00;99482.88;6184457;23;19923;-74
2024/03/11 08:13:08;;;;;;;;;;;;;;;5.77;100.00;99485.78;6184968;23;19912;-75
2024/03/11 08:15:33;;;;;;;;;;;;;;;5.78;100.00;99482.09;6183762;23;19916;-74
2024/03/11 08:17:59;;;;;;;;;;;;;;;5.80;100.00;99490.72;6184419;23;20284;-74
2024/03/11 08:20:26;;;;;;;;;;;;;;;5.79;100.00;99481.06;6184342;23;20229;-74
2024/03/11 08:22:54;;;;;;;;;;;;;;;5.84;100.00;99481.25;6185161;23;19932;-75
2024/03/11 08:25:22;;;;;;;;;;;;;;;5.81;100.00;99492.38;6158125;23;20325;-76
2024/03/11 08:27:51;;;;;;;;;;;;;;;5.79;100.00;99494.41;6185325;23;19912;-74
2024/03/11 08:30:17;;;;;;;;;;;;;;;5.81;100.00;99492.38;6184594;23;19948;-74
2024/03/11 08:32:42;;;;;;;;;;;;;;;5.80;100.00;99489.88;6184087;23;20299;-74
2024/03/11 08:35:08;;;;;;;;;;;;;;;5.77;100.00;99491.91;6185083;23;20217;-75
2024/03/11 08:37:36;;;;;;;;;;;;;;;5.81;100.00;99489.69;6184527;23;20067;-74
2024/03/11 08:40:04;;;;;;;;;;;;;;;5.87;100.00;99499.56;6184259;23;20321;-74
2024/03/11 08:42:29;;;;;;;;;;;;;;;5.83;100.00;99509.00;6158813;23;19913;-74
2024/03/11 08:44:55;;;;;;;;;;;;;;;5.77;100.00;99502.59;6184630;23;19935;-74
2024/03/11 08:47:23;;;;;;;;;;;;;;;5.81;100.00;99503.06;6183684;23;19913;-74
2024/03/11 08:49:48;;;;;;;;;;;;;;;5.91;100.00;99506.16;6186578;23;19923;-74
2024/03/11 08:52:14;;;;;;;;;;;;;;;5.97;100.00;99503.72;6185428;23;20232;-75
2024/03/11 08:54:43;;;;;;;;;;;;;;;5.97;100.00;99512.53;6183844;23;19966;-74
2024/03/11 08:57:08;;;;;;;;;;;;;;;5.98;100.00;99521.41;6185027;23;20240;-75
2024/03/11 08:59:35;;;;;;;;;;;;;;;5.91;100.00;99521.38;6183627;23;19919;-74
2024/03/11 09:02:01;;;;;;;;;;;;;;;5.91;100.00;99518.72;6182963;23;19912;-74
2024/03/11 09:04:26;;;;;;;;;;;;;;;5.85;100.00;99519.50;6184092;23;20236;-74
2024/03/11 09:06:53;;;;;;;;;;;;;;;5.84;100.00;99531.19;6184503;23;19912;-74
2024/03/11 09:09:24;;;;;;;;;;;;;;;5.86;100.00;99527.28;6183939;23;19971;-73
2024/03/11 09:11:50;;;;;;;;;;;;;;;5.87;100.00;99531.63;6183925;23;20351;-74
2024/03/11 09:14:15;;;;;;;;;;;;;;;5.86;100.00;99537.16;6156889;23;19916;-74
2024/03/11 09:16:40;;;;;;;;;;;;;;;5.83;100.00;99526.88;6182616;23;19913;-74
2024/03/11 09:19:05;;;;;;;;;;;;;;;5.81;100.00;99529.75;6183405;23;19995;-74
2024/03/11 09:21:31;;;;;;;;;;;;;;;5.80;100.00;99538.78;6184344;23;19920;-74
2024/03/11 09:23:56;;;;;;;;;;;;;;;5.88;100.00;99535.94;6182479;23;20003;-74
2024/03/11 09:26:23;;;;;;;;;;;;;;;5.84;100.00;99536.53;6185140;23;19950;-73
2024/03/11 09:28:49;;;;;;;;;;;;;;;5.87;100.00;99547.63;6184441;23;19919;-75
2024/03/11 09:31:14;;;;;;;;;;;;;;;5.86;100.00;99543.31;6183235;23;19916;-75
2024/03/11 09:33:41;;;;;;;;;;;;;;;5.87;100.00;99555.66;6184672;23;19919;-75
2024/03/11 09:36:07;;;;;;;;;;;;;;;5.88;100.00;99557.31;6184614;23;19923;-74
2024/03/11 09:38:36;;;;;;;;;;;;;;;5.87;100.00;99562.84;6184116;23;20034;-75
2024/03/11 09:41:05;;;;;;;;;;;;;;;5.83;100.00;99567.75;6184869;23;19919;-72
2024/03/11 09:43:30;;;;;;;;;;;;;;;5.81;100.00;99571.66;6184544;23;19916;-73
2024/03/11 09:45:55;;;;;;;;;;;;;;;5.79;100.00;99568.34;6157082;23;20241;-73
2024/03/11 09:48:25;;;;;;;;;;;;;;;5.80;100.00;99568.16;6183986;23;19966;-73
2024/03/11 09:50:50;;;;;;;;;;;;;;;5.84;100.00;99565.91;6183265;23;20236;-73
2024/03/11 09:53:18;;;;;;;;;;;;;;;5.85;100.00;99563.03;6184017;23;19943;-73
2024/03/11 09:55:44;;;;;;;;;;;;;;;5.88;100.00;99562.66;6184355;23;19920;-73
2024/03/11 09:58:10;;;;;;;;;;;;;;;5.88;100.00;99561.84;6183756;23;19912;-73
2024/03/11 10:00:39;;;;;;;;;;;;;;;5.90;100.00;99570.47;6188620;23;19912;-73
2024/03/11 10:03:05;;;;;;;;;;;;;;;6.00;100.00;99567.47;6188991;23;19935;-73
2024/03/11 10:05:34;;;;;;;;;;;;;;;6.10;100.00;99562.56;6185001;23;19912;-73
2024/03/11 10:07:59;;;;;;;;;;;;;;;6.21;100.00;99566.53;6184069;23;19919;-73
2024/03/11 10:10:25;;;;;;;;;;;;;;;6.37;100.00;99570.66;6183831;23;19912;-73
2024/03/11 10:12:58;;;;;;;;;;;;;;;6.51;100.00;99571.53;6182644;23;20329;-73
2024/03/11 10:15:27;;;;;;;;;;;;;;;6.64;100.00;99565.41;6183872;23;20324;-73
2024/03/11 10:17:54;;;;;;;;;;;;;;;6.94;100.00;99573.03;6183667;23;20240;-73
2024/03/11 10:20:22;;;;;;;;;;;;;;;7.16;100.00;99573.66;6183515;23;19918;-74
2024/03/11 10:22:51;;;;;;;;;;;;;;;7.35;100.00;99572.03;6184420;23;20339;-75
2024/03/11 10:25:22;;;;;;;;;;;;;;;7.28;100.00;99581.91;6183845;23;19983;-74
2024/03/11 10:27:47;;;;;;;;;;;;;;;7.33;100.00;99576.75;6183875;23;19975;-74
2024/03/11 10:30:20;;;;;;;;;;;;;;;7.22;100.00;99580.06;6157196;23;19987;-74
2024/03/11 10:32:45;;;;;;;;;;;;;;;7.15;100.00;99585.38;6183806;23;19909;-73
2024/03/11 10:35:11;;;;;;;;;;;;;;;6.95;100.00;99588.06;6183880;23;19995;-74
2024/03/11 10:37:41;;;;;;;;;;;;;;;6.83;100.00;99583.34;6183854;23;19940;-74
2024/03/11 10:40:10;;;;;;;;;;;;;;;6.81;100.00;99588.06;6157904;23;19919;-74
2024/03/11 10:42:36;;;;;;;;;;;;;;;6.92;100.00;99591.16;6157690;23;19959;-74
2024/03/11 10:45:05;;;;;;;;;;;;;;;6.94;100.00;99591.78;6183704;23;20335;-74
2024/03/11 10:47:30;;;;;;;;;;;;;;;6.96;100.00;99595.06;6182937;23;20335;-73
2024/03/11 10:49:55;;;;;;;;;;;;;;;6.97;100.00;99596.72;6158975;23;19916;-73
2024/03/11 10:52:30;;;;;;;;;;;;;;;6.98;100.00;99601.03;6157613;23;19923;-73
2024/03/11 10:54:55;;;;;;;;;;;;;;;6.91;100.00;99601.03;6183969;23;19987;-73
2024/03/11 10:57:27;;;;;;;;;;;;;;;6.88;100.00;99605.97;6159991;23;19947;-73
2024/03/11 10:59:53;;;;;;;;;;;;;;;6.82;100.00;99613.78;6182651;23;19936;-73
2024/03/11 11:02:24;;;;;;;;;;;;;;;6.76;100.00;99616.44;6156432;23;19912;-72
2024/03/11 11:04:52;;;;;;;;;;;;;;;6.64;100.00;99613.53;6184911;23;20221;-73
2024/03/11 11:07:20;;;;;;;;;;;;;;;6.56;100.00;99617.22;6183140;23;20350;-73
2024/03/11 11:09:49;;;;;;;;;;;;;;;6.49;100.00;99619.03;6158552;23;19991;-73
2024/03/11 11:12:14;;;;;;;;;;;;;;;6.42;100.00;99623.53;6159635;23;19920;-73
2024/03/11 11:14:40;;;;;;;;;;;;;;;6.38;100.00;99628.44;6156502;23;19954;-73
2024/03/11 11:17:09;;;;;;;;;;;;;;;6.32;100.00;99631.94;6182333;23;19913;-74
2024/03/11 11:19:35;;;;;;;;;;;;;;;6.30;100.00;99633.97;6159073;23;20194;-75
2024/03/11 11:22:00;;;;;;;;;;;;;;;6.26;100.00;99630.06;6160184;23;19923;-75
2024/03/11 11:24:26;;;;;;;;;;;;;;;6.28;100.00;99636.03;6185905;23;19913;-73
2024/03/11 11:26:52;;;;;;;;;;;;;;;6.23;100.00;99639.31;6188240;23;19919;-74
2024/03/11 11:29:29;;;;;;;;;;;;;;;6.24;100.00;99629.41;6190496;23;19916;-74
2024/03/11 11:32:04;;;;;;;;;;;;;;;6.28;100.00;99631.50;6208232;23;19943;-74
2024/03/11 11:34:47;;;;;;;;;;;;;;;6.31;100.00;99633.78;6184523;23;19916;-74
2024/03/11 11:37:19;;;;;;;;;;;;;;;6.37;100.00;99634.81;6203619;23;19943;-74
2024/03/11 11:39:44;;;;;;;;;;;;;;;6.39;100.00;99632.78;6188564;23;19919;-74
2024/03/11 11:42:28;;;;;;;;;;;;;;;6.43;100.00;99643.91;6188545;23;19912;-74
2024/03/11 11:44:55;;;;;;;;;;;;;;;6.43;100.00;99641.25;6186947;23;19912;-73
2024/03/11 11:47:20;;;;;;;;;;;;;;;6.40;100.00;99644.31;6187486;23;19940;-73
2024/03/11 11:49:47;;;;;;;;;;;;;;;6.40;100.00;99644.31;6186355;23;20313;-73
2024/03/11 11:52:15;;;;;;;;;;;;;;;6.40;100.00;99647.78;6185649;23;19921;-75
2024/03/11 11:54:40;;;;;;;;;;;;;;;6.39;100.00;99653.34;6186257;23;19943;-74
2024/03/11 11:57:15;;;;;;;;;;;;;;;6.38;100.00;99657.84;6185538;23;19943;-74
2024/03/11 11:59:42;;;;;;;;;;;;;;;6.37;100.00;99650.84;6187300;23;19912;-74
2024/03/11 12:02:21;;;;;;;;;;;;;;;6.36;100.00;99654.56;6185628;23;19913;-74
2024/03/11 12:04:50;;;;;;;;;;;;;;;6.40;100.00;99655.81;6186496;23;20252;-74
2024/03/11 12:07:22;;;;;;;;;;;;;;;6.43;100.00;99654.59;6186517;23;19916;-73
2024/03/11 12:09:53;;;;;;;;;;;;;;;6.36;100.00;99660.75;6192358;23;20245;-74
2024/03/11 12:12:33;;;;;;;;;;;;;;;6.30;100.00;99658.03;6197936;23;19926;-74
2024/03/11 12:14:58;;;;;;;;;;;;;;;6.24;100.00;99667.69;6188982;23;20367;-73
2024/03/11 12:17:29;;;;;;;;;;;;;;;6.33;100.00;99668.34;6187825;23;19913;-75
2024/03/11 12:20:13;;;;;;;;;;;;;;;6.39;100.00;99662.19;6186976;23;19927;-73
2024/03/11 12:22:38;;;;;;;;;;;;;;;6.43;100.00;99674.13;6187366;23;20326;-74
2024/03/11 12:25:04;;;;;;;;;;;;;;;6.39;100.00;99680.88;6186867;23;19912;-74
2024/03/11 12:27:30;;;;;;;;;;;;;;;6.41;100.00;99686.88;6184888;23;20378;-74
2024/03/11 12:30:01;;;;;;;;;;;;;;;6.44;100.00;99689.16;6184529;23;19940;-74
2024/03/11 12:32:26;;;;;;;;;;;;;;;6.44;100.00;99680.31;6184802;23;19916;-75
2024/03/11 12:34:53;;;;;;;;;;;;;;;6.40;100.00;99687.88;6187929;23;19990;-74
2024/03/11 12:37:18;;;;;;;;;;;;;;;6.41;100.00;99686.88;6163444;23;19916;-74
2024/03/11 12:39:47;;;;;;;;;;;;;;;6.48;100.00;99690.41;6160291;23;19912;-74
2024/03/11 12:42:15;;;;;;;;;;;;;;;6.49;100.00;99689.38;6159786;23;19919;-74
2024/03/11 12:44:41;;;;;;;;;;;;;;;6.52;100.00;99697.00;6186018;23;19932;-74
2024/03/11 12:47:07;;;;;;;;;;;;;;;6.46;100.00;99699.63;6184704;23;20203;-74
2024/03/11 12:49:32;;;;;;;;;;;;;;;6.50;100.00;99699.06;6185315;23;19991;-74
2024/03/11 12:52:00;;;;;;;;;;;;;;;6.61;100.00;99710.19;6186124;23;19918;-73
2024/03/11 12:54:26;;;;;;;;;;;;;;;6.62;100.00;99706.50;6185550;23;19912;-73
2024/03/11 12:57:13;;;;;;;;;;;;;;;6.64;100.00;99710.63;6187113;23;20379;-73
2024/03/11 12:59:42;;;;;;;;;;;;;;;6.65;100.00;99716.81;6185586;23;19919;-73
2024/03/11 13:02:15;;;;;;;;;;;;;;;6.67;100.00;99714.75;6184374;23;19920;-74